sensor_id;sensor_type;location;lat;lon;timestamp;P1;durP1;ratioP1;P2;durP2;ratioP2
72422;SDS011;71399;54.146;38.734;2023-07-31T00:00:45;4.97;;;2.50;;
72422;SDS011;71399;54.146;38.734;2023-07-31T00:03:12;5.20;;;2.55;;
72422;SDS011;71399;54.146;38.734;2023-07-31T00:05:38;11.57;;;2.53;;
72422;SDS011;71399;54.146;38.734;2023-07-31T00:08:04;4.05;;;2.42;;
72422;SDS011;71399;54.146;38.734;2023-07-31T00:10:30;4.03;;;2.55;;
72422;SDS011;71399;54.146;38.734;2023-07-31T00:12:57;6.25;;;2.45;;
72422;SDS011;71399;54.146;38.734;2023-07-31T00:15:23;8.25;;;2.65;;
72422;SDS011;71399;54.146;38.734;2023-07-31T00:17:49;10.35;;;2.88;;
72422;SDS011;71399;54.146;38.734;2023-07-31T00:20:15;6.80;;;2.95;;
72422;SDS011;71399;54.146;38.734;2023-07-31T00:22:41;4.85;;;2.85;;
72422;SDS011;71399;54.146;38.734;2023-07-31T00:25:07;11.00;;;3.10;;
72422;SDS011;71399;54.146;38.734;2023-07-31T00:27:34;6.35;;;2.85;;
72422;SDS011;71399;54.146;38.734;2023-07-31T00:30:00;8.05;;;2.75;;
72422;SDS011;71399;54.146;38.734;2023-07-31T00:32:26;5.72;;;3.05;;
72422;SDS011;71399;54.146;38.734;2023-07-31T00:34:52;6.30;;;2.70;;
72422;SDS011;71399;54.146;38.734;2023-07-31T00:37:18;6.07;;;2.83;;
72422;SDS011;71399;54.146;38.734;2023-07-31T00:39:44;7.70;;;2.85;;
72422;SDS011;71399;54.146;38.734;2023-07-31T00:42:10;6.97;;;2.75;;
72422;SDS011;71399;54.146;38.734;2023-07-31T00:44:36;6.47;;;2.50;;
72422;SDS011;71399;54.146;38.734;2023-07-31T00:47:02;7.88;;;3.08;;
72422;SDS011;71399;54.146;38.734;2023-07-31T00:49:29;6.57;;;3.28;;
72422;SDS011;71399;54.146;38.734;2023-07-31T00:51:55;4.82;;;2.50;;
72422;SDS011;71399;54.146;38.734;2023-07-31T00:54:24;5.95;;;2.88;;
72422;SDS011;71399;54.146;38.734;2023-07-31T00:56:51;7.75;;;2.75;;
72422;SDS011;71399;54.146;38.734;2023-07-31T00:59:21;5.88;;;2.80;;
72422;SDS011;71399;54.146;38.734;2023-07-31T01:01:47;5.78;;;3.15;;
72422;SDS011;71399;54.146;38.734;2023-07-31T01:04:13;7.82;;;2.72;;
72422;SDS011;71399;54.146;38.734;2023-07-31T01:06:47;6.95;;;3.08;;
72422;SDS011;71399;54.146;38.734;2023-07-31T01:09:21;7.38;;;2.78;;
72422;SDS011;71399;54.146;38.734;2023-07-31T01:11:53;4.97;;;2.70;;
72422;SDS011;71399;54.146;38.734;2023-07-31T01:14:21;5.85;;;2.65;;
72422;SDS011;71399;54.146;38.734;2023-07-31T01:16:48;6.18;;;2.88;;
72422;SDS011;71399;54.146;38.734;2023-07-31T01:19:14;6.70;;;2.95;;
72422;SDS011;71399;54.146;38.734;2023-07-31T01:21:53;5.70;;;2.83;;
72422;SDS011;71399;54.146;38.734;2023-07-31T01:25:07;6.25;;;2.63;;
72422;SDS011;71399;54.146;38.734;2023-07-31T01:27:34;8.88;;;2.65;;
72422;SDS011;71399;54.146;38.734;2023-07-31T01:30:18;6.10;;;2.72;;
72422;SDS011;71399;54.146;38.734;2023-07-31T01:32:51;8.43;;;3.17;;
72422;SDS011;71399;54.146;38.734;2023-07-31T01:35:20;9.43;;;2.80;;
72422;SDS011;71399;54.146;38.734;2023-07-31T01:37:47;8.25;;;3.00;;
72422;SDS011;71399;54.146;38.734;2023-07-31T01:40:13;6.75;;;2.95;;
72422;SDS011;71399;54.146;38.734;2023-07-31T01:42:39;7.47;;;3.20;;
72422;SDS011;71399;54.146;38.734;2023-07-31T01:45:05;7.10;;;2.47;;
72422;SDS011;71399;54.146;38.734;2023-07-31T01:47:32;4.68;;;2.72;;
72422;SDS011;71399;54.146;38.734;2023-07-31T01:49:58;5.43;;;2.70;;
72422;SDS011;71399;54.146;38.734;2023-07-31T01:52:25;10.65;;;2.92;;
72422;SDS011;71399;54.146;38.734;2023-07-31T01:54:51;4.53;;;2.45;;
72422;SDS011;71399;54.146;38.734;2023-07-31T01:57:17;6.95;;;2.50;;
72422;SDS011;71399;54.146;38.734;2023-07-31T01:59:44;5.15;;;3.00;;
72422;SDS011;71399;54.146;38.734;2023-07-31T02:02:10;9.25;;;2.90;;
72422;SDS011;71399;54.146;38.734;2023-07-31T02:04:36;7.30;;;2.78;;
72422;SDS011;71399;54.146;38.734;2023-07-31T02:07:04;7.60;;;2.80;;
72422;SDS011;71399;54.146;38.734;2023-07-31T02:09:31;6.88;;;2.85;;
72422;SDS011;71399;54.146;38.734;2023-07-31T02:11:58;9.90;;;2.85;;
72422;SDS011;71399;54.146;38.734;2023-07-31T02:14:24;6.20;;;2.83;;
72422;SDS011;71399;54.146;38.734;2023-07-31T02:16:50;7.40;;;2.70;;
72422;SDS011;71399;54.146;38.734;2023-07-31T02:19:17;8.13;;;2.75;;
72422;SDS011;71399;54.146;38.734;2023-07-31T02:21:43;5.65;;;2.70;;
72422;SDS011;71399;54.146;38.734;2023-07-31T02:24:09;6.93;;;2.92;;
72422;SDS011;71399;54.146;38.734;2023-07-31T02:26:35;5.05;;;2.80;;
72422;SDS011;71399;54.146;38.734;2023-07-31T02:29:02;7.25;;;2.60;;
72422;SDS011;71399;54.146;38.734;2023-07-31T02:31:29;8.43;;;2.63;;
72422;SDS011;71399;54.146;38.734;2023-07-31T02:33:55;4.47;;;2.40;;
72422;SDS011;71399;54.146;38.734;2023-07-31T02:36:21;8.75;;;2.60;;
72422;SDS011;71399;54.146;38.734;2023-07-31T02:38:47;5.95;;;2.40;;
72422;SDS011;71399;54.146;38.734;2023-07-31T02:41:13;7.00;;;2.63;;
72422;SDS011;71399;54.146;38.734;2023-07-31T02:43:40;5.00;;;2.25;;
72422;SDS011;71399;54.146;38.734;2023-07-31T02:46:06;8.48;;;2.75;;
72422;SDS011;71399;54.146;38.734;2023-07-31T02:48:32;7.88;;;2.42;;
72422;SDS011;71399;54.146;38.734;2023-07-31T02:50:58;6.53;;;2.40;;
72422;SDS011;71399;54.146;38.734;2023-07-31T02:53:24;4.28;;;2.47;;
72422;SDS011;71399;54.146;38.734;2023-07-31T02:55:51;7.50;;;2.42;;
72422;SDS011;71399;54.146;38.734;2023-07-31T02:58:17;7.20;;;2.55;;
72422;SDS011;71399;54.146;38.734;2023-07-31T03:00:43;4.78;;;2.20;;
72422;SDS011;71399;54.146;38.734;2023-07-31T03:03:10;4.85;;;2.38;;
72422;SDS011;71399;54.146;38.734;2023-07-31T03:05:37;9.52;;;2.70;;
72422;SDS011;71399;54.146;38.734;2023-07-31T03:08:03;8.70;;;2.50;;
72422;SDS011;71399;54.146;38.734;2023-07-31T03:10:30;5.05;;;2.38;;
72422;SDS011;71399;54.146;38.734;2023-07-31T03:12:56;6.90;;;2.05;;
72422;SDS011;71399;54.146;38.734;2023-07-31T03:15:22;6.32;;;2.22;;
72422;SDS011;71399;54.146;38.734;2023-07-31T03:17:48;10.48;;;3.17;;
72422;SDS011;71399;54.146;38.734;2023-07-31T03:20:15;6.95;;;2.80;;
72422;SDS011;71399;54.146;38.734;2023-07-31T03:22:41;6.32;;;2.58;;
72422;SDS011;71399;54.146;38.734;2023-07-31T03:25:07;6.75;;;2.75;;
72422;SDS011;71399;54.146;38.734;2023-07-31T03:27:35;8.57;;;3.00;;
72422;SDS011;71399;54.146;38.734;2023-07-31T03:30:02;7.00;;;2.90;;
72422;SDS011;71399;54.146;38.734;2023-07-31T03:32:30;3.90;;;2.25;;
72422;SDS011;71399;54.146;38.734;2023-07-31T03:34:57;7.20;;;2.15;;
72422;SDS011;71399;54.146;38.734;2023-07-31T03:37:24;3.42;;;1.75;;
72422;SDS011;71399;54.146;38.734;2023-07-31T03:39:50;9.00;;;2.30;;
72422;SDS011;71399;54.146;38.734;2023-07-31T03:42:16;3.47;;;1.75;;
72422;SDS011;71399;54.146;38.734;2023-07-31T03:44:43;6.10;;;2.42;;
72422;SDS011;71399;54.146;38.734;2023-07-31T03:47:10;5.35;;;2.03;;
72422;SDS011;71399;54.146;38.734;2023-07-31T03:49:37;4.45;;;2.28;;
72422;SDS011;71399;54.146;38.734;2023-07-31T03:52:03;5.30;;;2.17;;
72422;SDS011;71399;54.146;38.734;2023-07-31T03:54:30;4.10;;;2.00;;
72422;SDS011;71399;54.146;38.734;2023-07-31T03:56:56;5.15;;;1.90;;
72422;SDS011;71399;54.146;38.734;2023-07-31T03:59:22;12.93;;;2.50;;
72422;SDS011;71399;54.146;38.734;2023-07-31T04:01:49;5.85;;;2.30;;
72422;SDS011;71399;54.146;38.734;2023-07-31T04:04:15;4.95;;;2.40;;
72422;SDS011;71399;54.146;38.734;2023-07-31T04:06:41;5.78;;;1.92;;
72422;SDS011;71399;54.146;38.734;2023-07-31T04:09:07;3.42;;;1.80;;
72422;SDS011;71399;54.146;38.734;2023-07-31T04:11:33;6.38;;;1.77;;
72422;SDS011;71399;54.146;38.734;2023-07-31T04:13:59;5.00;;;1.77;;
72422;SDS011;71399;54.146;38.734;2023-07-31T04:16:26;6.03;;;1.88;;
72422;SDS011;71399;54.146;38.734;2023-07-31T04:18:52;6.78;;;2.10;;
72422;SDS011;71399;54.146;38.734;2023-07-31T04:21:18;5.55;;;1.80;;
72422;SDS011;71399;54.146;38.734;2023-07-31T04:23:44;4.70;;;1.80;;
72422;SDS011;71399;54.146;38.734;2023-07-31T04:26:10;6.50;;;2.22;;
72422;SDS011;71399;54.146;38.734;2023-07-31T04:28:36;4.38;;;2.10;;
72422;SDS011;71399;54.146;38.734;2023-07-31T04:39:04;4.75;;;1.80;;
72422;SDS011;71399;54.146;38.734;2023-07-31T04:41:30;5.82;;;2.00;;
72422;SDS011;71399;54.146;38.734;2023-07-31T04:43:56;3.42;;;1.55;;
72422;SDS011;71399;54.146;38.734;2023-07-31T04:46:22;3.97;;;1.50;;
72422;SDS011;71399;54.146;38.734;2023-07-31T04:48:48;5.82;;;1.80;;
72422;SDS011;71399;54.146;38.734;2023-07-31T04:51:14;3.55;;;1.50;;
72422;SDS011;71399;54.146;38.734;2023-07-31T04:53:41;4.10;;;1.50;;
72422;SDS011;71399;54.146;38.734;2023-07-31T04:56:07;4.07;;;1.60;;
72422;SDS011;71399;54.146;38.734;2023-07-31T04:58:33;2.70;;;1.42;;
72422;SDS011;71399;54.146;38.734;2023-07-31T05:00:59;5.18;;;1.70;;
72422;SDS011;71399;54.146;38.734;2023-07-31T05:03:25;6.40;;;1.58;;
72422;SDS011;71399;54.146;38.734;2023-07-31T05:05:51;4.97;;;1.75;;
72422;SDS011;71399;54.146;38.734;2023-07-31T05:08:18;3.53;;;1.67;;
72422;SDS011;71399;54.146;38.734;2023-07-31T05:10:44;3.78;;;1.52;;
72422;SDS011;71399;54.146;38.734;2023-07-31T05:13:10;5.70;;;1.83;;
72422;SDS011;71399;54.146;38.734;2023-07-31T05:15:36;2.70;;;1.30;;
72422;SDS011;71399;54.146;38.734;2023-07-31T05:18:02;6.28;;;1.40;;
72422;SDS011;71399;54.146;38.734;2023-07-31T05:20:28;5.20;;;1.60;;
72422;SDS011;71399;54.146;38.734;2023-07-31T05:22:54;4.60;;;1.40;;
72422;SDS011;71399;54.146;38.734;2023-07-31T05:25:21;3.53;;;1.52;;
72422;SDS011;71399;54.146;38.734;2023-07-31T05:27:47;5.57;;;1.50;;
72422;SDS011;71399;54.146;38.734;2023-07-31T05:30:13;4.57;;;1.70;;
72422;SDS011;71399;54.146;38.734;2023-07-31T05:32:39;2.78;;;1.60;;
72422;SDS011;71399;54.146;38.734;2023-07-31T05:35:05;4.10;;;1.40;;
72422;SDS011;71399;54.146;38.734;2023-07-31T05:37:31;4.07;;;1.60;;
72422;SDS011;71399;54.146;38.734;2023-07-31T05:39:58;3.00;;;1.40;;
72422;SDS011;71399;54.146;38.734;2023-07-31T05:42:24;2.85;;;1.25;;
72422;SDS011;71399;54.146;38.734;2023-07-31T05:44:50;3.28;;;1.23;;
72422;SDS011;71399;54.146;38.734;2023-07-31T05:47:16;2.72;;;1.45;;
72422;SDS011;71399;54.146;38.734;2023-07-31T05:49:43;3.08;;;1.23;;
72422;SDS011;71399;54.146;38.734;2023-07-31T05:52:10;4.05;;;1.58;;
72422;SDS011;71399;54.146;38.734;2023-07-31T05:54:36;2.28;;;1.25;;
72422;SDS011;71399;54.146;38.734;2023-07-31T05:57:02;5.53;;;1.45;;
72422;SDS011;71399;54.146;38.734;2023-07-31T05:59:28;6.75;;;1.50;;
72422;SDS011;71399;54.146;38.734;2023-07-31T06:01:56;2.65;;;1.38;;
72422;SDS011;71399;54.146;38.734;2023-07-31T06:04:22;4.80;;;1.40;;
72422;SDS011;71399;54.146;38.734;2023-07-31T06:06:51;2.35;;;1.40;;
72422;SDS011;71399;54.146;38.734;2023-07-31T06:09:17;2.92;;;1.40;;
72422;SDS011;71399;54.146;38.734;2023-07-31T06:11:44;4.63;;;1.55;;
72422;SDS011;71399;54.146;38.734;2023-07-31T06:14:10;2.97;;;1.10;;
72422;SDS011;71399;54.146;38.734;2023-07-31T06:16:36;4.43;;;1.50;;
72422;SDS011;71399;54.146;38.734;2023-07-31T06:19:02;3.58;;;1.58;;
72422;SDS011;71399;54.146;38.734;2023-07-31T06:21:29;2.53;;;1.38;;
72422;SDS011;71399;54.146;38.734;2023-07-31T06:23:55;3.58;;;1.35;;
72422;SDS011;71399;54.146;38.734;2023-07-31T06:26:21;4.95;;;1.40;;
72422;SDS011;71399;54.146;38.734;2023-07-31T06:28:48;3.58;;;1.30;;
72422;SDS011;71399;54.146;38.734;2023-07-31T06:31:14;2.55;;;1.40;;
72422;SDS011;71399;54.146;38.734;2023-07-31T06:33:40;3.97;;;1.60;;
72422;SDS011;71399;54.146;38.734;2023-07-31T06:36:06;6.25;;;1.38;;
72422;SDS011;71399;54.146;38.734;2023-07-31T06:38:32;3.55;;;1.58;;
72422;SDS011;71399;54.146;38.734;2023-07-31T06:40:58;3.97;;;1.30;;
72422;SDS011;71399;54.146;38.734;2023-07-31T06:43:24;2.67;;;1.30;;
72422;SDS011;71399;54.146;38.734;2023-07-31T06:45:50;5.65;;;1.95;;
72422;SDS011;71399;54.146;38.734;2023-07-31T06:48:17;10.40;;;1.60;;
72422;SDS011;71399;54.146;38.734;2023-07-31T06:50:43;5.72;;;1.60;;
72422;SDS011;71399;54.146;38.734;2023-07-31T06:53:09;2.55;;;1.33;;
72422;SDS011;71399;54.146;38.734;2023-07-31T06:55:35;5.63;;;1.73;;
72422;SDS011;71399;54.146;38.734;2023-07-31T06:58:01;5.28;;;1.80;;
72422;SDS011;71399;54.146;38.734;2023-07-31T07:00:28;5.80;;;1.75;;
72422;SDS011;71399;54.146;38.734;2023-07-31T07:02:54;5.82;;;1.77;;
72422;SDS011;71399;54.146;38.734;2023-07-31T07:05:20;6.30;;;1.80;;
72422;SDS011;71399;54.146;38.734;2023-07-31T07:07:48;3.88;;;1.60;;
72422;SDS011;71399;54.146;38.734;2023-07-31T07:10:16;2.95;;;1.30;;
72422;SDS011;71399;54.146;38.734;2023-07-31T07:12:42;3.85;;;1.55;;
72422;SDS011;71399;54.146;38.734;2023-07-31T07:15:08;3.95;;;1.50;;
72422;SDS011;71399;54.146;38.734;2023-07-31T07:17:35;3.20;;;1.65;;
72422;SDS011;71399;54.146;38.734;2023-07-31T07:20:01;6.13;;;1.67;;
72422;SDS011;71399;54.146;38.734;2023-07-31T07:22:29;2.42;;;1.13;;
72422;SDS011;71399;54.146;38.734;2023-07-31T07:24:55;5.80;;;1.08;;
72422;SDS011;71399;54.146;38.734;2023-07-31T07:27:22;3.28;;;1.30;;
72422;SDS011;71399;54.146;38.734;2023-07-31T07:29:49;4.25;;;1.30;;
72422;SDS011;71399;54.146;38.734;2023-07-31T07:32:19;2.78;;;1.17;;
72422;SDS011;71399;54.146;38.734;2023-07-31T07:34:47;6.32;;;1.30;;
72422;SDS011;71399;54.146;38.734;2023-07-31T07:37:14;5.75;;;1.60;;
72422;SDS011;71399;54.146;38.734;2023-07-31T07:39:40;2.30;;;1.50;;
72422;SDS011;71399;54.146;38.734;2023-07-31T07:42:06;4.03;;;1.63;;
72422;SDS011;71399;54.146;38.734;2023-07-31T07:44:33;3.92;;;1.65;;
72422;SDS011;71399;54.146;38.734;2023-07-31T07:46:59;4.43;;;1.92;;
72422;SDS011;71399;54.146;38.734;2023-07-31T07:49:25;5.18;;;1.50;;
72422;SDS011;71399;54.146;38.734;2023-07-31T07:51:51;3.72;;;1.70;;
72422;SDS011;71399;54.146;38.734;2023-07-31T07:54:17;2.55;;;1.27;;
72422;SDS011;71399;54.146;38.734;2023-07-31T07:56:44;2.60;;;1.40;;
72422;SDS011;71399;54.146;38.734;2023-07-31T07:59:10;3.67;;;1.38;;
72422;SDS011;71399;54.146;38.734;2023-07-31T08:01:36;2.40;;;1.27;;
72422;SDS011;71399;54.146;38.734;2023-07-31T08:04:03;2.30;;;1.33;;
72422;SDS011;71399;54.146;38.734;2023-07-31T08:06:29;3.10;;;1.42;;
72422;SDS011;71399;54.146;38.734;2023-07-31T08:08:55;2.85;;;1.20;;
72422;SDS011;71399;54.146;38.734;2023-07-31T08:11:22;4.10;;;1.67;;
72422;SDS011;71399;54.146;38.734;2023-07-31T08:13:49;3.17;;;1.45;;
72422;SDS011;71399;54.146;38.734;2023-07-31T08:16:16;3.63;;;1.42;;
72422;SDS011;71399;54.146;38.734;2023-07-31T08:18:42;4.20;;;1.30;;
72422;SDS011;71399;54.146;38.734;2023-07-31T08:21:08;2.78;;;1.42;;
72422;SDS011;71399;54.146;38.734;2023-07-31T08:23:34;2.33;;;1.38;;
72422;SDS011;71399;54.146;38.734;2023-07-31T08:26:00;2.47;;;1.50;;
72422;SDS011;71399;54.146;38.734;2023-07-31T08:28:27;2.25;;;1.30;;
72422;SDS011;71399;54.146;38.734;2023-07-31T08:30:53;6.97;;;1.50;;
72422;SDS011;71399;54.146;38.734;2023-07-31T08:33:19;5.65;;;1.50;;
72422;SDS011;71399;54.146;38.734;2023-07-31T08:35:45;2.58;;;1.30;;
72422;SDS011;71399;54.146;38.734;2023-07-31T08:38:12;2.13;;;1.40;;
72422;SDS011;71399;54.146;38.734;2023-07-31T08:40:38;3.25;;;1.40;;
72422;SDS011;71399;54.146;38.734;2023-07-31T08:43:04;2.83;;;1.42;;
72422;SDS011;71399;54.146;38.734;2023-07-31T08:45:30;3.53;;;1.40;;
72422;SDS011;71399;54.146;38.734;2023-07-31T08:47:58;6.10;;;1.70;;
72422;SDS011;71399;54.146;38.734;2023-07-31T08:50:25;2.72;;;1.70;;
72422;SDS011;71399;54.146;38.734;2023-07-31T08:52:51;3.35;;;1.58;;
72422;SDS011;71399;54.146;38.734;2023-07-31T08:55:18;3.78;;;1.90;;
72422;SDS011;71399;54.146;38.734;2023-07-31T08:57:51;6.05;;;2.10;;
72422;SDS011;71399;54.146;38.734;2023-07-31T09:00:21;8.10;;;2.10;;
72422;SDS011;71399;54.146;38.734;2023-07-31T09:03:02;3.67;;;1.60;;
72422;SDS011;71399;54.146;38.734;2023-07-31T09:05:33;4.22;;;1.55;;
72422;SDS011;71399;54.146;38.734;2023-07-31T09:08:02;7.22;;;1.63;;
72422;SDS011;71399;54.146;38.734;2023-07-31T09:10:30;3.10;;;1.80;;
72422;SDS011;71399;54.146;38.734;2023-07-31T09:12:57;5.63;;;1.40;;
72422;SDS011;71399;54.146;38.734;2023-07-31T09:15:23;3.10;;;1.60;;
72422;SDS011;71399;54.146;38.734;2023-07-31T09:17:58;4.53;;;1.60;;
72422;SDS011;71399;54.146;38.734;2023-07-31T09:20:28;2.83;;;1.20;;
72422;SDS011;71399;54.146;38.734;2023-07-31T09:22:54;5.53;;;1.85;;
72422;SDS011;71399;54.146;38.734;2023-07-31T09:25:25;3.25;;;1.25;;
72422;SDS011;71399;54.146;38.734;2023-07-31T09:27:58;4.47;;;1.50;;
72422;SDS011;71399;54.146;38.734;2023-07-31T09:30:29;5.18;;;1.50;;
72422;SDS011;71399;54.146;38.734;2023-07-31T09:33:05;4.18;;;1.33;;
72422;SDS011;71399;54.146;38.734;2023-07-31T09:35:33;3.10;;;1.30;;
72422;SDS011;71399;54.146;38.734;2023-07-31T09:38:03;2.30;;;1.30;;
72422;SDS011;71399;54.146;38.734;2023-07-31T09:40:33;2.25;;;1.38;;
72422;SDS011;71399;54.146;38.734;2023-07-31T09:43:04;3.28;;;1.25;;
72422;SDS011;71399;54.146;38.734;2023-07-31T09:45:36;3.55;;;1.42;;
72422;SDS011;71399;54.146;38.734;2023-07-31T09:48:08;2.88;;;1.50;;
72422;SDS011;71399;54.146;38.734;2023-07-31T09:50:39;4.60;;;1.65;;
72422;SDS011;71399;54.146;38.734;2023-07-31T09:53:07;3.60;;;1.40;;
72422;SDS011;71399;54.146;38.734;2023-07-31T09:55:34;2.38;;;1.45;;
72422;SDS011;71399;54.146;38.734;2023-07-31T09:58:11;5.97;;;1.45;;
72422;SDS011;71399;54.146;38.734;2023-07-31T10:00:38;5.72;;;1.85;;
72422;SDS011;71399;54.146;38.734;2023-07-31T10:03:06;2.50;;;1.35;;
72422;SDS011;71399;54.146;38.734;2023-07-31T10:05:34;5.15;;;1.58;;
72422;SDS011;71399;54.146;38.734;2023-07-31T10:08:01;2.60;;;1.40;;
72422;SDS011;71399;54.146;38.734;2023-07-31T10:10:28;4.43;;;1.30;;
72422;SDS011;71399;54.146;38.734;2023-07-31T10:12:56;2.22;;;1.30;;
72422;SDS011;71399;54.146;38.734;2023-07-31T10:15:23;4.20;;;1.30;;
72422;SDS011;71399;54.146;38.734;2023-07-31T10:17:53;3.05;;;1.50;;
72422;SDS011;71399;54.146;38.734;2023-07-31T10:20:21;2.72;;;1.35;;
72422;SDS011;71399;54.146;38.734;2023-07-31T10:22:47;3.22;;;1.40;;
72422;SDS011;71399;54.146;38.734;2023-07-31T10:25:17;2.28;;;1.30;;
72422;SDS011;71399;54.146;38.734;2023-07-31T10:27:45;4.95;;;1.60;;
72422;SDS011;71399;54.146;38.734;2023-07-31T10:30:16;7.80;;;1.75;;
72422;SDS011;71399;54.146;38.734;2023-07-31T10:32:44;2.80;;;1.23;;
72422;SDS011;71399;54.146;38.734;2023-07-31T10:35:11;3.88;;;1.60;;
72422;SDS011;71399;54.146;38.734;2023-07-31T10:37:39;6.18;;;1.60;;
72422;SDS011;71399;54.146;38.734;2023-07-31T10:42:56;3.47;;;1.48;;
72422;SDS011;71399;54.146;38.734;2023-07-31T10:50:31;5.03;;;1.88;;
72422;SDS011;71399;54.146;38.734;2023-07-31T10:53:04;3.47;;;1.38;;
72422;SDS011;71399;54.146;38.734;2023-07-31T10:55:33;4.18;;;1.52;;
72422;SDS011;71399;54.146;38.734;2023-07-31T10:58:08;4.32;;;1.38;;
72422;SDS011;71399;54.146;38.734;2023-07-31T11:00:39;6.88;;;1.90;;
72422;SDS011;71399;54.146;38.734;2023-07-31T11:03:09;6.68;;;1.90;;
72422;SDS011;71399;54.146;38.734;2023-07-31T11:05:52;4.18;;;1.70;;
72422;SDS011;71399;54.146;38.734;2023-07-31T11:08:25;3.40;;;1.80;;
72422;SDS011;71399;54.146;38.734;2023-07-31T11:16:00;4.78;;;1.95;;
72422;SDS011;71399;54.146;38.734;2023-07-31T11:18:26;6.32;;;2.75;;
72422;SDS011;71399;54.146;38.734;2023-07-31T11:20:53;5.88;;;2.88;;
72422;SDS011;71399;54.146;38.734;2023-07-31T11:23:19;6.07;;;2.47;;
72422;SDS011;71399;54.146;38.734;2023-07-31T11:25:47;5.13;;;2.67;;
72422;SDS011;71399;54.146;38.734;2023-07-31T11:28:14;7.05;;;2.53;;
72422;SDS011;71399;54.146;38.734;2023-07-31T11:30:42;5.05;;;2.10;;
72422;SDS011;71399;54.146;38.734;2023-07-31T11:33:10;3.08;;;2.13;;
72422;SDS011;71399;54.146;38.734;2023-07-31T11:35:42;4.68;;;2.25;;
72422;SDS011;71399;54.146;38.734;2023-07-31T11:40:50;4.05;;;2.10;;
72422;SDS011;71399;54.146;38.734;2023-07-31T11:43:20;6.57;;;2.40;;
72422;SDS011;71399;54.146;38.734;2023-07-31T11:45:47;6.18;;;2.17;;
72422;SDS011;71399;54.146;38.734;2023-07-31T11:48:30;5.40;;;2.38;;
72422;SDS011;71399;54.146;38.734;2023-07-31T11:51:04;4.22;;;2.20;;
72422;SDS011;71399;54.146;38.734;2023-07-31T11:53:44;9.13;;;2.65;;
72422;SDS011;71399;54.146;38.734;2023-07-31T11:56:19;3.40;;;2.10;;
72422;SDS011;71399;54.146;38.734;2023-07-31T11:58:48;6.32;;;2.88;;
72422;SDS011;71399;54.146;38.734;2023-07-31T12:01:18;4.40;;;2.47;;
72422;SDS011;71399;54.146;38.734;2023-07-31T12:03:46;3.90;;;2.50;;
72422;SDS011;71399;54.146;38.734;2023-07-31T12:06:13;4.40;;;2.63;;
72422;SDS011;71399;54.146;38.734;2023-07-31T12:08:39;11.88;;;2.60;;
72422;SDS011;71399;54.146;38.734;2023-07-31T12:11:07;4.80;;;2.15;;
72422;SDS011;71399;54.146;38.734;2023-07-31T12:13:37;4.68;;;2.00;;
72422;SDS011;71399;54.146;38.734;2023-07-31T12:16:03;4.25;;;2.30;;
72422;SDS011;71399;54.146;38.734;2023-07-31T12:18:33;5.70;;;2.10;;
72422;SDS011;71399;54.146;38.734;2023-07-31T12:21:01;4.47;;;2.40;;
72422;SDS011;71399;54.146;38.734;2023-07-31T12:23:30;6.35;;;2.15;;
72422;SDS011;71399;54.146;38.734;2023-07-31T12:26:16;3.85;;;1.98;;
72422;SDS011;71399;54.146;38.734;2023-07-31T12:28:43;3.33;;;1.90;;
72422;SDS011;71399;54.146;38.734;2023-07-31T12:31:14;5.30;;;2.30;;
72422;SDS011;71399;54.146;38.734;2023-07-31T12:33:45;3.97;;;1.83;;
72422;SDS011;71399;54.146;38.734;2023-07-31T12:36:13;4.75;;;1.85;;
72422;SDS011;71399;54.146;38.734;2023-07-31T12:38:41;6.40;;;2.08;;
72422;SDS011;71399;54.146;38.734;2023-07-31T12:41:08;3.47;;;1.90;;
72422;SDS011;71399;54.146;38.734;2023-07-31T12:43:37;6.75;;;2.05;;
72422;SDS011;71399;54.146;38.734;2023-07-31T12:46:06;3.88;;;1.88;;
72422;SDS011;71399;54.146;38.734;2023-07-31T12:48:36;5.40;;;1.90;;
72422;SDS011;71399;54.146;38.734;2023-07-31T12:51:03;4.70;;;1.92;;
72422;SDS011;71399;54.146;38.734;2023-07-31T12:53:29;3.83;;;2.00;;
72422;SDS011;71399;54.146;38.734;2023-07-31T12:55:56;4.60;;;1.70;;
72422;SDS011;71399;54.146;38.734;2023-07-31T12:58:23;3.92;;;1.90;;
72422;SDS011;71399;54.146;38.734;2023-07-31T13:00:49;6.45;;;2.00;;
72422;SDS011;71399;54.146;38.734;2023-07-31T13:03:15;5.15;;;2.58;;
72422;SDS011;71399;54.146;38.734;2023-07-31T13:05:41;4.65;;;2.17;;
72422;SDS011;71399;54.146;38.734;2023-07-31T13:08:07;2.97;;;2.00;;
72422;SDS011;71399;54.146;38.734;2023-07-31T13:10:34;4.53;;;2.17;;
72422;SDS011;71399;54.146;38.734;2023-07-31T13:13:00;4.60;;;2.20;;
72422;SDS011;71399;54.146;38.734;2023-07-31T13:15:26;4.20;;;1.90;;
72422;SDS011;71399;54.146;38.734;2023-07-31T13:17:52;4.82;;;2.22;;
72422;SDS011;71399;54.146;38.734;2023-07-31T13:20:18;6.10;;;1.98;;
72422;SDS011;71399;54.146;38.734;2023-07-31T13:22:45;5.47;;;1.92;;
72422;SDS011;71399;54.146;38.734;2023-07-31T13:25:11;4.18;;;1.70;;
72422;SDS011;71399;54.146;38.734;2023-07-31T13:27:37;5.82;;;1.92;;
72422;SDS011;71399;54.146;38.734;2023-07-31T13:30:03;4.00;;;2.22;;
72422;SDS011;71399;54.146;38.734;2023-07-31T13:32:30;7.40;;;1.98;;
72422;SDS011;71399;54.146;38.734;2023-07-31T13:34:56;5.40;;;2.10;;
72422;SDS011;71399;54.146;38.734;2023-07-31T13:37:23;6.13;;;1.80;;
72422;SDS011;71399;54.146;38.734;2023-07-31T13:39:49;4.13;;;1.83;;
72422;SDS011;71399;54.146;38.734;2023-07-31T13:42:15;4.10;;;1.73;;
72422;SDS011;71399;54.146;38.734;2023-07-31T13:44:41;7.88;;;1.92;;
72422;SDS011;71399;54.146;38.734;2023-07-31T13:47:08;4.47;;;1.52;;
72422;SDS011;71399;54.146;38.734;2023-07-31T13:49:35;6.43;;;1.88;;
72422;SDS011;71399;54.146;38.734;2023-07-31T13:52:02;3.40;;;1.88;;
72422;SDS011;71399;54.146;38.734;2023-07-31T13:54:28;4.00;;;1.80;;
72422;SDS011;71399;54.146;38.734;2023-07-31T13:56:55;2.85;;;1.80;;
72422;SDS011;71399;54.146;38.734;2023-07-31T13:59:21;8.38;;;2.95;;
72422;SDS011;71399;54.146;38.734;2023-07-31T14:01:47;5.90;;;2.10;;
72422;SDS011;71399;54.146;38.734;2023-07-31T14:04:14;3.05;;;1.85;;
72422;SDS011;71399;54.146;38.734;2023-07-31T14:06:40;4.07;;;2.10;;
72422;SDS011;71399;54.146;38.734;2023-07-31T14:09:06;3.42;;;1.83;;
72422;SDS011;71399;54.146;38.734;2023-07-31T14:11:33;3.95;;;2.28;;
72422;SDS011;71399;54.146;38.734;2023-07-31T14:13:59;7.38;;;2.13;;
72422;SDS011;71399;54.146;38.734;2023-07-31T14:16:27;4.95;;;2.45;;
72422;SDS011;71399;54.146;38.734;2023-07-31T14:18:54;5.70;;;2.05;;
72422;SDS011;71399;54.146;38.734;2023-07-31T14:21:20;4.65;;;1.75;;
72422;SDS011;71399;54.146;38.734;2023-07-31T14:23:46;4.65;;;1.95;;
72422;SDS011;71399;54.146;38.734;2023-07-31T14:26:12;4.50;;;2.22;;
72422;SDS011;71399;54.146;38.734;2023-07-31T14:28:38;6.25;;;1.88;;
72422;SDS011;71399;54.146;38.734;2023-07-31T14:31:05;3.03;;;1.80;;
72422;SDS011;71399;54.146;38.734;2023-07-31T14:33:31;4.03;;;1.90;;
72422;SDS011;71399;54.146;38.734;2023-07-31T14:35:58;3.42;;;1.70;;
72422;SDS011;71399;54.146;38.734;2023-07-31T14:38:24;3.45;;;1.67;;
72422;SDS011;71399;54.146;38.734;2023-07-31T14:40:51;10.07;;;2.22;;
72422;SDS011;71399;54.146;38.734;2023-07-31T14:43:17;3.10;;;1.83;;
72422;SDS011;71399;54.146;38.734;2023-07-31T14:45:43;3.50;;;1.88;;
72422;SDS011;71399;54.146;38.734;2023-07-31T14:48:11;3.78;;;1.65;;
72422;SDS011;71399;54.146;38.734;2023-07-31T14:50:38;4.85;;;1.60;;
72422;SDS011;71399;54.146;38.734;2023-07-31T14:53:04;3.58;;;1.77;;
72422;SDS011;71399;54.146;38.734;2023-07-31T14:55:30;2.97;;;1.75;;
72422;SDS011;71399;54.146;38.734;2023-07-31T14:57:57;6.20;;;1.65;;